createdAt,value
2022-09-16T00:00:27.766Z,12.54
2022-09-16T00:03:20.674Z,12.53
2022-09-16T00:05:54.109Z,12.51
2022-09-16T00:08:26.001Z,12.49
2022-09-16T00:11:02.421Z,12.49
2022-09-16T00:13:34.201Z,12.47
2022-09-16T00:16:10.642Z,12.47
2022-09-16T00:18:42.472Z,12.47
2022-09-16T00:21:14.824Z,12.47
2022-09-16T00:23:46.813Z,12.46
2022-09-16T00:26:19.576Z,12.45
2022-09-16T00:28:52.355Z,12.45
2022-09-16T00:31:24.258Z,12.44
2022-09-16T00:33:56.237Z,12.43
2022-09-16T00:36:28.056Z,12.42
2022-09-16T00:38:59.909Z,12.42
2022-09-16T00:41:33.568Z,12.40
2022-09-16T00:44:08.118Z,12.40
2022-09-16T00:46:44.985Z,12.37
2022-09-16T00:49:21.847Z,12.38
2022-09-16T00:51:57.205Z,12.38
2022-09-16T00:54:30.210Z,12.37
2022-09-16T00:57:04.844Z,12.37
2022-09-16T00:59:39.872Z,12.37
2022-09-16T01:02:15.042Z,12.37
2022-09-16T01:04:52.244Z,12.37
2022-09-16T01:07:32.303Z,12.39
2022-09-16T01:14:54.561Z,12.42
2022-09-16T01:17:38.443Z,12.42
2022-09-16T01:20:39.745Z,12.43
2022-09-16T01:23:52.088Z,12.43
2022-09-16T01:26:53.338Z,12.42
2022-09-16T01:29:46.203Z,12.41
2022-09-16T01:32:24.357Z,12.40
2022-09-16T01:35:06.136Z,12.38
2022-09-16T01:37:48.205Z,12.38
2022-09-16T01:40:29.768Z,12.39
2022-09-16T01:43:09.724Z,12.35
2022-09-16T01:45:50.335Z,12.32
2022-09-16T01:48:31.841Z,12.30
2022-09-16T01:51:08.855Z,12.29
2022-09-16T01:53:41.059Z,12.29
2022-09-16T01:56:22.049Z,12.28
2022-09-16T01:58:59.391Z,12.29
2022-09-16T02:01:37.520Z,12.28
2022-09-16T02:04:14.611Z,12.29
2022-09-16T02:06:49.286Z,12.31
2022-09-16T02:09:25.903Z,12.32
2022-09-16T02:12:05.526Z,12.33
2022-09-16T02:14:41.737Z,12.32
2022-09-16T02:17:16.537Z,12.32
2022-09-16T02:19:55.061Z,12.32
2022-09-16T02:22:33.528Z,12.32
2022-09-16T02:25:08.570Z,12.33
2022-09-16T02:27:43.575Z,12.34
2022-09-16T02:30:19.456Z,12.34
2022-09-16T02:32:55.697Z,12.34
2022-09-16T02:35:29.584Z,12.31
2022-09-16T02:38:05.169Z,12.28
2022-09-16T02:40:40.165Z,12.25
2022-09-16T02:43:12.478Z,12.23
2022-09-16T02:45:53.156Z,12.21
2022-09-16T02:48:33.663Z,12.19
2022-09-16T02:51:15.423Z,12.18
2022-09-16T02:53:53.905Z,12.17
2022-09-16T02:56:32.204Z,12.16
2022-09-16T02:59:07.177Z,12.15
2022-09-16T03:01:43.112Z,12.15
2022-09-16T03:04:18.190Z,12.16
2022-09-16T03:06:50.668Z,12.17
2022-09-16T03:09:24.921Z,12.17
2022-09-16T03:12:22.675Z,12.17
2022-09-16T03:15:26.560Z,12.17
2022-09-16T03:18:22.621Z,12.16
2022-09-16T03:21:01.718Z,12.13
2022-09-16T03:23:44.720Z,12.10
2022-09-16T03:26:32.195Z,12.09
2022-09-16T03:29:14.075Z,12.07
2022-09-16T03:31:53.567Z,12.04
2022-09-16T03:34:31.394Z,12.01
2022-09-16T03:37:08.248Z,11.98
2022-09-16T03:39:41.580Z,11.95
2022-09-16T03:42:15.391Z,11.92
2022-09-16T03:44:47.516Z,11.89
2022-09-16T03:47:21.135Z,11.86
2022-09-16T03:49:53.204Z,11.83
2022-09-16T03:52:25.183Z,11.81
2022-09-16T03:54:57.303Z,11.78
2022-09-16T03:57:30.443Z,11.76
2022-09-16T04:00:03.339Z,11.74
2022-09-16T04:02:43.739Z,11.71
2022-09-16T04:05:15.915Z,11.68
2022-09-16T04:07:49.756Z,11.66
2022-09-16T04:10:22.060Z,11.65
2022-09-16T04:12:57.499Z,11.64
2022-09-16T04:15:29.490Z,11.62
2022-09-16T04:18:03.150Z,11.60
2022-09-16T04:20:36.409Z,11.59
2022-09-16T04:23:08.518Z,11.56
2022-09-16T04:25:41.152Z,11.54
2022-09-16T04:28:13.212Z,11.53
2022-09-16T04:30:45.311Z,11.54
2022-09-16T04:33:18.949Z,11.56
2022-09-16T04:35:50.979Z,11.58
2022-09-16T04:38:23.091Z,11.58
2022-09-16T04:41:01.004Z,11.57
2022-09-16T04:43:33.079Z,11.60
2022-09-16T04:46:05.592Z,11.63
2022-09-16T04:48:38.020Z,11.70
2022-09-16T04:51:12.158Z,11.77
2022-09-16T04:53:45.319Z,11.87
2022-09-16T04:56:19.702Z,11.91
2022-09-16T04:58:53.624Z,11.91
2022-09-16T05:01:27.677Z,11.90
2022-09-16T05:04:02.188Z,11.87
2022-09-16T05:06:36.472Z,11.92
2022-09-16T05:09:09.803Z,12.17
2022-09-16T05:11:43.108Z,12.39
2022-09-16T05:14:17.749Z,12.71
2022-09-16T05:16:50.469Z,13.35
2022-09-16T05:19:22.771Z,13.95
2022-09-16T05:21:54.907Z,14.44
2022-09-16T05:24:27.037Z,14.85
2022-09-16T05:26:59.080Z,15.08
2022-09-16T05:29:31.122Z,15.43
2022-09-16T05:32:03.504Z,15.56
2022-09-16T05:34:37.030Z,15.88
2022-09-16T05:37:09.100Z,15.91
2022-09-16T05:39:41.157Z,16.03
2022-09-16T05:42:13.590Z,16.20
2022-09-16T05:44:45.653Z,16.48
2022-09-16T05:47:17.589Z,16.36
2022-09-16T05:49:49.862Z,16.09
2022-09-16T05:52:22.011Z,15.89
2022-09-16T05:54:54.061Z,15.90
2022-09-16T05:57:26.582Z,15.81
2022-09-16T05:59:58.636Z,15.73
2022-09-16T06:02:30.820Z,15.59
2022-09-16T06:05:03.337Z,15.51
2022-09-16T06:07:35.429Z,15.43
2022-09-16T06:10:09.179Z,15.38
2022-09-16T06:12:41.253Z,15.31
2022-09-16T06:15:15.604Z,15.34
2022-09-16T06:17:47.644Z,15.26
2022-09-16T06:20:20.669Z,15.34
2022-09-16T06:22:53.036Z,15.23
2022-09-16T06:25:25.106Z,15.15
2022-09-16T06:27:57.207Z,15.28
2022-09-16T06:30:31.191Z,15.37
2022-09-16T06:33:03.488Z,15.32
2022-09-16T06:35:36.836Z,15.33
2022-09-16T06:38:08.884Z,15.30
2022-09-16T06:40:40.984Z,15.77
2022-09-16T06:43:13.035Z,16.27
2022-09-16T06:45:45.129Z,16.45
2022-09-16T06:48:17.422Z,16.62
2022-09-16T06:50:49.460Z,17.40
2022-09-16T06:53:21.473Z,17.64
2022-09-16T06:55:53.516Z,17.70
2022-09-16T06:58:25.849Z,18.44
2022-09-16T07:00:57.952Z,19.50
2022-09-16T07:03:31.180Z,20.51
2022-09-16T07:06:03.902Z,20.98
2022-09-16T07:08:37.993Z,21.56
2022-09-16T07:11:12.335Z,22.32
2022-09-16T07:13:45.547Z,22.83
2022-09-16T07:16:20.091Z,23.15
2022-09-16T07:19:00.610Z,23.50
2022-09-16T07:21:33.808Z,23.76
2022-09-16T07:24:06.585Z,24.45
2022-09-16T07:26:38.916Z,24.90
2022-09-16T07:29:14.516Z,24.66
2022-09-16T07:31:46.859Z,24.45
2022-09-16T07:34:20.139Z,24.47
2022-09-16T07:36:53.020Z,24.58
2022-09-16T07:39:25.959Z,24.78
2022-09-16T07:42:00.596Z,24.75
2022-09-16T07:44:34.770Z,24.95
2022-09-16T07:47:07.035Z,25.11
2022-09-16T07:49:39.066Z,24.91
2022-09-16T07:52:11.546Z,25.09
2022-09-16T07:54:43.902Z,25.38
2022-09-16T07:57:16.032Z,25.72
2022-09-16T07:59:48.934Z,25.97
2022-09-16T08:02:21.187Z,26.24
2022-09-16T08:04:53.882Z,26.42
2022-09-16T08:07:26.177Z,26.35
2022-09-16T08:09:58.228Z,25.92
2022-09-16T08:12:33.720Z,25.48
2022-09-16T08:15:06.587Z,25.65
2022-09-16T08:17:38.833Z,26.12
2022-09-16T08:20:13.002Z,26.53
2022-09-16T08:22:45.068Z,26.70
2022-09-16T08:25:17.300Z,26.76
2022-09-16T08:27:52.852Z,26.93
2022-09-16T08:30:28.131Z,27.12
2022-09-16T08:33:01.413Z,26.83
2022-09-16T08:35:34.136Z,26.05
2022-09-16T08:38:06.224Z,25.79
2022-09-16T08:40:39.235Z,26.20
2022-09-16T08:43:20.940Z,26.45
2022-09-16T08:46:00.856Z,26.34
2022-09-16T08:48:41.575Z,25.86
2022-09-16T08:51:18.804Z,25.47
2022-09-16T08:53:58.706Z,25.21
2022-09-16T08:56:35.321Z,24.85
2022-09-16T08:59:15.248Z,24.74
2022-09-16T09:01:53.466Z,24.73
2022-09-16T09:04:26.212Z,24.25
2022-09-16T09:07:06.652Z,24.01
2022-09-16T09:10:01.810Z,23.48
2022-09-16T09:12:41.251Z,23.08
2022-09-16T09:15:37.782Z,22.61
2022-09-16T09:18:32.585Z,22.10
2022-09-16T09:21:17.042Z,21.74
2022-09-16T09:24:24.272Z,21.31
2022-09-16T09:27:04.178Z,20.81
2022-09-16T09:30:00.243Z,20.86
2022-09-16T09:32:49.398Z,21.21
2022-09-16T09:35:39.708Z,21.64
2022-09-16T09:38:37.527Z,21.66
2022-09-16T09:41:14.122Z,21.44
2022-09-16T09:43:50.492Z,21.76
2022-09-16T09:46:27.285Z,21.90
2022-09-16T09:48:59.716Z,21.78
2022-09-16T09:51:37.500Z,21.55
2022-09-16T09:54:28.053Z,21.28
2022-09-16T09:57:04.257Z,21.14
2022-09-16T09:59:44.874Z,20.73
2022-09-16T10:02:19.903Z,20.28
2022-09-16T10:04:52.520Z,19.82
2022-09-16T10:07:28.874Z,19.47
2022-09-16T10:10:05.105Z,19.42
2022-09-16T10:12:38.582Z,19.31
2022-09-16T10:15:23.839Z,19.22
2022-09-16T10:17:56.921Z,19.19
2022-09-16T10:20:33.120Z,19.08
2022-09-16T10:23:06.201Z,18.89
2022-09-16T10:25:38.851Z,18.75
2022-09-16T10:28:22.075Z,18.60
2022-09-16T10:30:56.722Z,18.39
2022-09-16T10:33:32.894Z,18.41
2022-09-16T10:36:07.591Z,18.77
2022-09-16T10:38:42.471Z,19.23
2022-09-16T10:41:21.572Z,19.51
2022-09-16T10:43:57.427Z,19.45
2022-09-16T10:46:31.576Z,19.56
2022-09-16T10:49:13.896Z,19.96
2022-09-16T10:51:46.021Z,20.38
2022-09-16T10:54:28.417Z,20.69
2022-09-16T10:57:00.759Z,21.01
2022-09-16T10:59:33.099Z,21.15
2022-09-16T11:02:22.937Z,21.27
